Longford, Ireland
Current Conditions -  °F | °C
As of 10:00 AM on Friday 28 Nov 2014 (Local Time) from EIME Reporting Station
Broken Clouds Broken Clouds  
Wind Chill: 50°   Ceiling: 20000
Heat Index: 50°   Visibility: 6mi
Dew Point: 45°   Wind: 13mph
Humidity: 82%   Direction: 70°ENE
Pressure: 29.59"   Gusts: NA
Location:  53.09°N, 7.62°W
Report Text: EIME 281000Z 07011KT 9999 FEW013 BKN200 10/07 Q1002
Loading
Personal Weather Stations






























Interactive Weather Map New forecast layout! Learn more

10-Day Weather Forecast

Advertisements
Track Severe Weather on mobile